Time;durP1;ratioP1;P1;durP2;ratioP2;P2;SDS_P1;SDS_P2;PMS_P1;PMS_P2;Temp;Humidity;BMP_temperature;BMP_pressure;BME280_temperature;BME280_humidity;BME280_pressure;Samples;Min_cycle;Max_cycle;Signal;HPM_P1;HPM_P2
2022/03/12 00:01:31;;;;;;;85.47;42.67;;;;;;;-3.44;65.08;95732.91;1721675;82;20958;-51
2022/03/12 00:04:00;;;;;;;91.53;40.08;;;;;;;-3.44;64.75;95735.61;1726096;82;20971;-49
2022/03/12 00:06:31;;;;;;;87.78;36.95;;;;;;;-3.49;64.55;95733.14;1722371;82;21021;-50
2022/03/12 00:08:59;;;;;;;50.12;25.88;;;;;;;-3.58;64.62;95738.94;1728971;82;20995;-50
2022/03/12 00:11:55;;;;;;;57.95;27.75;;;;;;;-3.70;64.62;95738.94;1724306;82;21546;-49
2022/03/12 00:14:04;;;;;;;139.15;58.05;;;;;;;-3.86;65.16;95744.71;1716736;82;21027;-50
2022/03/12 00:16:32;;;;;;;119.42;54.27;;;;;;;-3.91;65.22;95740.32;1722147;82;21036;-50
2022/03/12 00:19:03;;;;;;;108.67;47.43;;;;;;;-3.89;65.41;95735.97;1723496;82;20959;-49
2022/03/12 00:21:34;;;;;;;84.67;40.33;;;;;;;-3.86;65.28;95737.99;1719748;82;21081;-50
2022/03/12 00:24:01;;;;;;;82.02;37.78;;;;;;;-3.84;65.09;95730.38;1723606;82;21244;-50
2022/03/12 00:26:29;;;;;;;72.65;33.23;;;;;;;-3.82;65.16;95724.91;1728248;82;21446;-49
2022/03/12 00:28:58;;;;;;;76.02;36.20;;;;;;;-3.79;65.06;95724.23;1722639;82;20959;-50
2022/03/12 00:31:26;;;;;;;121.15;51.13;;;;;;;-3.73;65.31;95726.16;1720470;82;21018;-53
2022/03/12 00:33:53;;;;;;;143.35;60.43;;;;;;;-3.66;65.06;95721.02;1724663;82;21027;-50
2022/03/12 00:36:21;;;;;;;140.12;63.90;;;;;;;-3.67;64.79;95719.45;1722258;82;21138;-50
2022/03/12 00:38:48;;;;;;;122.65;52.48;;;;;;;-3.78;64.56;95722.32;1716344;82;21143;-50
2022/03/12 00:41:16;;;;;;;122.37;53.50;;;;;;;-3.98;64.42;95729.88;1717582;82;21009;-50
2022/03/12 00:43:44;;;;;;;121.45;52.20;;;;;;;-4.16;64.92;95728.48;1725248;82;21065;-49
2022/03/12 00:46:12;;;;;;;96.95;47.58;;;;;;;-4.14;65.34;95731.61;1709762;83;21053;-50
2022/03/12 00:48:40;;;;;;;92.72;44.90;;;;;;;-4.13;64.92;95731.84;1712343;82;21277;-50
2022/03/12 00:51:08;;;;;;;82.40;39.60;;;;;;;-4.21;64.89;95730.03;1705557;82;21066;-48
2022/03/12 00:53:35;;;;;;;81.32;37.40;;;;;;;-4.23;65.00;95736.30;1708281;83;21026;-50
2022/03/12 00:56:04;;;;;;;64.17;31.77;;;;;;;-4.22;64.73;95730.58;1714650;82;21482;-49
2022/03/12 00:58:31;;;;;;;63.05;32.25;;;;;;;-4.25;64.39;95727.78;1698561;82;20961;-50
2022/03/12 01:00:59;;;;;;;63.75;29.30;;;;;;;-4.29;64.26;95734.91;1705456;83;22076;-51
2022/03/12 01:03:26;;;;;;;59.10;29.63;;;;;;;-4.32;64.27;95731.54;1713474;82;21042;-49
2022/03/12 01:05:59;;;;;;;84.17;38.75;;;;;;;-4.35;63.88;95725.48;1695917;82;21080;-51
2022/03/12 01:08:27;;;;;;;68.02;33.90;;;;;;;-4.42;63.87;95724.67;1711673;83;21027;-50
2022/03/12 01:10:59;;;;;;;63.92;31.27;;;;;;;-4.41;64.02;95728.16;1694637;83;21535;-50
2022/03/12 01:13:28;;;;;;;81.45;37.17;;;;;;;-4.42;63.76;95727.93;1691222;84;21133;-50
2022/03/12 01:15:55;;;;;;;76.60;38.15;;;;;;;-4.50;63.67;95723.41;1699232;84;21121;-49
2022/03/12 01:18:25;;;;;;;100.18;42.90;;;;;;;-4.59;63.65;95721.35;1700119;83;21225;-49
2022/03/12 01:20:53;;;;;;;87.78;39.40;;;;;;;-4.68;63.94;95725.45;1689685;83;21002;-50
2022/03/12 01:23:24;;;;;;;71.90;37.00;;;;;;;-4.72;63.90;95726.42;1692870;83;21025;-50
2022/03/12 01:25:52;;;;;;;79.40;38.30;;;;;;;-4.81;63.72;95727.82;1690017;84;21239;-50
2022/03/12 01:28:21;;;;;;;73.55;33.65;;;;;;;-4.92;63.50;95729.88;1696910;84;20996;-49
2022/03/12 01:30:48;;;;;;;57.43;29.40;;;;;;;-5.05;63.72;95721.50;1693723;83;21059;-50
2022/03/12 01:33:17;;;;;;;48.02;23.55;;;;;;;-5.12;64.24;95723.92;1682923;83;20985;-50
2022/03/12 01:35:45;;;;;;;43.08;25.05;;;;;;;-5.17;64.30;95729.48;1681019;84;21570;-50
2022/03/12 01:38:14;;;;;;;39.63;21.12;;;;;;;-5.22;64.41;95729.64;1684949;84;21071;-49
2022/03/12 01:40:41;;;;;;;39.42;19.25;;;;;;;-5.26;64.44;95730.87;1637966;84;21080;-50
2022/03/12 01:43:10;;;;;;;42.65;23.10;;;;;;;-5.31;64.65;95732.37;1678006;84;21051;-50
2022/03/12 01:45:37;;;;;;;46.60;23.47;;;;;;;-5.29;64.80;95729.38;1693134;84;21445;-50
2022/03/12 01:48:06;;;;;;;56.65;28.40;;;;;;;-5.34;64.64;95732.78;1688921;84;21088;-50
2022/03/12 01:50:37;;;;;;;52.85;25.30;;;;;;;-5.39;64.32;95735.09;1689693;84;21163;-50
2022/03/12 01:53:10;;;;;;;50.35;28.00;;;;;;;-5.43;63.97;95730.14;1679690;84;21148;-49
2022/03/12 01:55:40;;;;;;;58.60;31.05;;;;;;;-5.46;63.86;95736.16;1698800;84;21616;-50
2022/03/12 01:58:07;;;;;;;73.83;37.13;;;;;;;-5.44;64.03;95733.16;1695117;84;20977;-49
2022/03/12 02:00:48;;;;;;;76.90;37.28;;;;;;;-5.46;63.81;95741.52;1687621;84;21087;-49
2022/03/12 02:03:26;;;;;;;88.60;40.92;;;;;;;-5.53;63.82;95746.60;1676398;84;21417;-49
2022/03/12 02:05:51;;;;;;;100.82;45.92;;;;;;;-5.67;63.86;95741.20;1690949;84;21100;-49
2022/03/12 02:08:19;;;;;;;91.08;40.80;;;;;;;-5.78;64.52;95744.78;1677210;84;21017;-49
2022/03/12 02:10:50;;;;;;;83.35;38.40;;;;;;;-5.79;64.68;95741.90;1691974;84;21128;-49
2022/03/12 02:13:17;;;;;;;88.47;38.63;;;;;;;-5.83;64.83;95742.31;1676624;84;20940;-50
2022/03/12 02:15:46;;;;;;;78.90;36.73;;;;;;;-5.76;65.17;95743.91;1678867;84;21004;-51
2022/03/12 02:18:15;;;;;;;74.80;33.75;;;;;;;-5.69;65.41;95742.07;1681047;84;20981;-50
2022/03/12 02:20:43;;;;;;;72.08;34.15;;;;;;;-5.58;64.82;95752.11;1696129;84;21044;-49
2022/03/12 02:23:12;;;;;;;85.95;41.30;;;;;;;-5.66;64.64;95747.59;1681807;84;21433;-49
2022/03/12 02:25:41;;;;;;;98.58;47.23;;;;;;;-5.67;64.77;95743.88;1686133;84;21591;-49
2022/03/12 02:28:17;;;;;;;99.10;47.80;;;;;;;-5.77;64.28;95744.23;1684396;84;21065;-50
2022/03/12 02:30:51;;;;;;;90.03;43.70;;;;;;;-5.95;64.46;95748.87;1685243;83;21545;-49
2022/03/12 02:33:27;;;;;;;98.30;43.68;;;;;;;-6.06;64.51;95744.97;1711442;83;21042;-49
2022/03/12 02:35:49;;;;;;;81.65;39.08;;;;;;;-6.13;64.64;95744.66;1710477;83;20951;-50
2022/03/12 02:38:18;;;;;;;84.10;42.23;;;;;;;-6.21;64.77;95745.47;1711490;83;21034;-50
2022/03/12 02:40:47;;;;;;;92.57;43.83;;;;;;;-6.16;64.98;95745.86;1711466;83;21167;-51
2022/03/12 02:43:14;;;;;;;104.30;45.25;;;;;;;-6.14;64.68;95745.76;1711370;83;21046;-50
2022/03/12 02:45:43;;;;;;;84.58;40.80;;;;;;;-6.16;64.40;95741.84;1658449;83;21067;-55
2022/03/12 02:48:11;;;;;;;91.78;42.15;;;;;;;-6.26;63.92;95739.48;1711817;83;20959;-50
2022/03/12 02:50:42;;;;;;;82.35;41.15;;;;;;;-6.43;63.77;95746.98;1711938;83;20966;-49
2022/03/12 02:53:10;;;;;;;104.45;47.53;;;;;;;-6.50;64.16;95749.33;1711500;83;21046;-49
2022/03/12 02:55:40;;;;;;;112.30;51.25;;;;;;;-6.49;64.20;95748.23;1711442;83;20939;-50
2022/03/12 02:58:09;;;;;;;94.28;43.83;;;;;;;-6.50;64.25;95744.55;1711310;83;21007;-50
2022/03/12 03:00:37;;;;;;;98.03;46.15;;;;;;;-6.49;64.04;95758.16;1688454;83;20999;-49
2022/03/12 03:03:06;;;;;;;77.40;35.25;;;;;;;-6.56;64.05;95755.19;1711540;83;21521;-49
2022/03/12 03:05:54;;;;;;;58.90;29.27;;;;;;;-6.60;64.10;95748.33;1704584;83;21918;-50
2022/03/12 03:08:19;;;;;;;65.15;33.75;;;;;;;-6.65;64.07;95757.86;1710455;83;21082;-49
2022/03/12 03:10:51;;;;;;;67.65;33.28;;;;;;;-6.74;64.09;95755.71;1711823;83;21530;-49
2022/03/12 03:13:24;;;;;;;74.15;36.05;;;;;;;-6.81;64.07;95758.61;1711405;83;20978;-50
2022/03/12 03:16:01;;;;;;;69.35;33.35;;;;;;;-6.87;64.27;95761.98;1706939;83;21094;-51
2022/03/12 03:18:31;;;;;;;43.00;21.62;;;;;;;-6.88;64.35;95769.77;1711436;83;21147;-49
2022/03/12 03:21:00;;;;;;;41.18;21.37;;;;;;;-6.90;64.01;95766.62;1711685;83;21012;-50
2022/03/12 03:23:31;;;;;;;47.67;25.70;;;;;;;-6.97;63.92;95762.83;1711336;83;20952;-50
2022/03/12 03:26:00;;;;;;;60.83;30.17;;;;;;;-7.00;64.34;95765.36;1711544;83;20961;-51
2022/03/12 03:28:27;;;;;;;65.80;31.27;;;;;;;-6.95;64.25;95764.11;1711494;83;21027;-51
2022/03/12 03:30:56;;;;;;;60.23;29.80;;;;;;;-6.94;64.01;95767.02;1705982;83;21327;-50
2022/03/12 03:33:24;;;;;;;53.05;27.67;;;;;;;-6.95;63.11;95772.13;1684632;84;21056;-50
2022/03/12 03:35:52;;;;;;;60.92;32.08;;;;;;;-7.09;62.88;95769.89;1698110;84;21449;-53
2022/03/12 03:38:19;;;;;;;67.78;32.50;;;;;;;-7.19;62.93;95767.52;1691470;84;21021;-50
2022/03/12 03:40:48;;;;;;;59.25;30.82;;;;;;;-7.23;63.17;95774.56;1693270;84;20985;-51
2022/03/12 03:43:19;;;;;;;67.27;30.30;;;;;;;-7.29;63.27;95779.82;1694278;84;21203;-49
2022/03/12 03:45:51;;;;;;;69.55;30.55;;;;;;;-7.36;63.41;95770.91;1702057;83;21222;-50
2022/03/12 03:48:21;;;;;;;69.00;31.47;;;;;;;-7.37;63.89;95771.23;1709403;82;21502;-49
2022/03/12 03:50:49;;;;;;;64.67;32.60;;;;;;;-7.31;63.58;95774.00;1704096;82;20984;-51
2022/03/12 03:53:19;;;;;;;60.40;28.75;;;;;;;-7.32;63.50;95779.88;1715812;82;21058;-51
2022/03/12 03:55:47;;;;;;;73.67;29.30;;;;;;;-7.33;63.45;95785.55;1714685;82;21541;-50
2022/03/12 03:58:15;;;;;;;58.10;27.22;;;;;;;-7.37;63.28;95783.27;1729786;82;20998;-52
2022/03/12 04:01:01;;;;;;;59.70;28.30;;;;;;;-7.52;63.08;95780.44;1727333;83;21562;-49
2022/03/12 04:03:32;;;;;;;59.70;29.37;;;;;;;-7.67;63.46;95785.41;1718755;82;21534;-51
2022/03/12 04:06:02;;;;;;;146.15;60.30;;;;;;;-7.70;63.75;95781.45;1719947;82;21046;-50
2022/03/12 04:08:33;;;;;;;133.82;58.28;;;;;;;-7.74;63.27;95779.73;1721225;82;21794;-49
2022/03/12 04:11:05;;;;;;;173.07;68.97;;;;;;;-7.86;63.13;95791.52;1720428;82;21007;-50
2022/03/12 04:13:33;;;;;;;170.02;67.82;;;;;;;-7.99;62.95;95786.50;1717879;82;21220;-48
2022/03/12 04:16:02;;;;;;;160.00;64.97;;;;;;;-8.09;63.02;95790.75;1712877;82;20958;-49
2022/03/12 04:18:31;;;;;;;142.32;57.88;;;;;;;-8.13;63.26;95783.64;1716258;82;21030;-49
2022/03/12 04:21:00;;;;;;;139.82;58.10;;;;;;;-8.14;63.21;95785.54;1720161;82;21083;-50
2022/03/12 04:23:28;;;;;;;135.82;55.83;;;;;;;-8.14;63.06;95787.41;1713372;82;20955;-50
2022/03/12 04:25:57;;;;;;;126.53;52.95;;;;;;;-8.15;63.55;95797.31;1715440;83;21060;-50
2022/03/12 04:28:25;;;;;;;157.67;63.02;;;;;;;-8.05;63.62;95808.28;1721543;82;20988;-49
2022/03/12 04:30:52;;;;;;;139.77;59.10;;;;;;;-7.99;63.36;95802.52;1716366;82;21029;-49
2022/03/12 04:33:21;;;;;;;123.10;51.70;;;;;;;-7.98;63.05;95801.42;1722013;82;20991;-49
2022/03/12 04:35:49;;;;;;;95.35;41.55;;;;;;;-8.05;62.85;95804.28;1716351;82;21006;-50
2022/03/12 04:38:17;;;;;;;69.62;35.58;;;;;;;-8.15;62.89;95803.98;1711823;83;21080;-49
2022/03/12 04:40:45;;;;;;;91.25;40.45;;;;;;;-8.18;63.19;95805.95;1721146;82;21055;-50
2022/03/12 04:43:14;;;;;;;80.35;34.98;;;;;;;-8.18;63.24;95813.16;1721856;82;21612;-50
2022/03/12 04:45:45;;;;;;;92.15;40.78;;;;;;;-8.29;62.88;95807.28;1706548;82;21280;-50
2022/03/12 04:48:15;;;;;;;76.97;37.47;;;;;;;-8.53;62.74;95809.98;1696972;82;21050;-50
2022/03/12 04:50:42;;;;;;;85.05;37.93;;;;;;;-8.70;63.04;95808.50;1695287;84;21580;-51
2022/03/12 04:53:10;;;;;;;91.32;40.25;;;;;;;-8.78;63.34;95812.42;1678463;84;21023;-50
2022/03/12 04:55:37;;;;;;;86.17;38.55;;;;;;;-8.76;63.57;95817.71;1685232;84;20963;-51
2022/03/12 04:58:05;;;;;;;88.52;39.80;;;;;;;-8.68;63.92;95815.66;1713423;82;21323;-50
2022/03/12 05:00:38;;;;;;;93.80;43.20;;;;;;;-8.59;63.76;95819.97;1718476;82;20990;-52
2022/03/12 05:03:10;;;;;;;120.10;53.60;;;;;;;-8.48;63.63;95821.86;1724666;82;21510;-51
2022/03/12 05:05:44;;;;;;;134.12;57.80;;;;;;;-8.38;63.55;95826.45;1720352;82;21045;-50
2022/03/12 05:08:19;;;;;;;130.40;58.45;;;;;;;-8.44;63.40;95824.97;1697562;82;21543;-50
2022/03/12 05:10:49;;;;;;;113.72;49.77;;;;;;;-8.45;63.38;95823.39;1700162;82;21168;-50
2022/03/12 05:13:27;;;;;;;152.53;61.18;;;;;;;-8.42;63.53;95832.68;1721803;82;21479;-51
2022/03/12 05:15:58;;;;;;;136.68;61.05;;;;;;;-8.37;63.44;95828.55;1723755;82;21022;-49
2022/03/12 05:18:26;;;;;;;159.50;68.92;;;;;;;-8.37;63.15;95832.02;1714942;82;21157;-49
2022/03/12 05:20:56;;;;;;;157.40;69.03;;;;;;;-8.38;63.06;95828.31;1722525;82;21049;-50
2022/03/12 05:23:24;;;;;;;147.93;68.02;;;;;;;-8.39;63.43;95830.73;1725853;82;21170;-50
2022/03/12 05:25:55;;;;;;;131.57;59.38;;;;;;;-8.37;63.12;95827.22;1719720;81;21434;-50
2022/03/12 05:28:27;;;;;;;129.00;56.58;;;;;;;-8.34;62.94;95828.75;1714867;83;20962;-52
2022/03/12 05:30:57;;;;;;;146.87;62.20;;;;;;;-8.31;63.47;95826.00;1716468;82;21046;-49
2022/03/12 05:33:24;;;;;;;122.15;58.00;;;;;;;-8.15;63.05;95825.86;1711941;83;21498;-53
2022/03/12 05:35:54;;;;;;;126.90;55.08;;;;;;;-8.04;63.12;95831.21;1711672;83;21202;-49
2022/03/12 05:38:23;;;;;;;215.50;105.90;;;;;;;-7.80;62.99;95839.67;1711730;83;21010;-50
2022/03/12 05:40:50;;;;;;;177.95;81.22;;;;;;;-7.60;62.57;95829.28;1711582;83;21559;-51
2022/03/12 05:43:18;;;;;;;193.82;89.47;;;;;;;-7.46;62.04;95827.31;1711817;83;20968;-56
2022/03/12 05:45:48;;;;;;;134.85;67.22;;;;;;;-7.36;61.57;95827.59;1703186;83;21097;-51
2022/03/12 05:48:16;;;;;;;121.37;52.85;;;;;;;-7.45;61.06;95825.41;1723951;82;21597;-51
2022/03/12 05:50:48;;;;;;;77.45;37.17;;;;;;;-7.56;60.96;95830.80;1717387;82;21112;-51
2022/03/12 05:53:18;;;;;;;74.15;38.10;;;;;;;-7.69;60.99;95833.00;1716222;82;22149;-50
2022/03/12 05:55:46;;;;;;;72.90;36.30;;;;;;;-7.85;61.14;95826.46;1711543;83;21026;-51
2022/03/12 05:58:17;;;;;;;78.70;37.70;;;;;;;-7.96;61.56;95818.45;1694244;83;21075;-50
2022/03/12 06:00:47;;;;;;;84.87;42.73;;;;;;;-7.95;61.73;95824.03;1681851;84;21154;-49
2022/03/12 06:03:14;;;;;;;110.08;54.10;;;;;;;-7.89;62.02;95825.50;1724259;82;21484;-52
2022/03/12 06:05:42;;;;;;;155.70;72.10;;;;;;;-7.74;61.97;95825.13;1710361;82;21113;-51
2022/03/12 06:08:21;;;;;;;196.57;91.95;;;;;;;-7.73;61.83;95822.70;1695862;84;21438;-49
2022/03/12 06:10:42;;;;;;;150.93;70.55;;;;;;;-7.75;61.95;95822.19;1689808;83;21003;-51
2022/03/12 06:13:11;;;;;;;91.28;45.75;;;;;;;-7.69;62.44;95824.42;1716096;82;21319;-51
2022/03/12 06:15:41;;;;;;;88.17;44.20;;;;;;;-7.64;62.36;95819.51;1696190;83;21446;-51
2022/03/12 06:18:08;;;;;;;81.53;41.90;;;;;;;-7.62;62.34;95826.13;1679887;83;21097;-54
2022/03/12 06:20:37;;;;;;;115.65;53.00;;;;;;;-7.59;62.34;95831.39;1715649;82;20963;-50
2022/03/12 06:23:05;;;;;;;72.12;39.27;;;;;;;-7.50;62.43;95817.54;1718914;83;20987;-53
2022/03/12 06:25:34;;;;;;;86.97;44.15;;;;;;;-7.41;62.46;95822.36;1721283;82;21153;-51
2022/03/12 06:28:01;;;;;;;86.70;40.70;;;;;;;-7.36;62.48;95831.59;1725154;82;20999;-50
2022/03/12 06:30:29;;;;;;;79.42;40.60;;;;;;;-7.24;62.64;95830.45;1721312;82;21003;-51
2022/03/12 06:32:57;;;;;;;72.62;37.83;;;;;;;-7.07;62.48;95826.50;1697094;82;21042;-49
2022/03/12 06:35:25;;;;;;;101.92;46.98;;;;;;;-6.80;62.40;95836.41;1715211;82;21006;-50
2022/03/12 06:37:53;;;;;;;143.85;71.30;;;;;;;-6.53;62.31;95830.23;1720950;82;21292;-50
2022/03/12 06:40:22;;;;;;;87.65;47.13;;;;;;;-6.17;61.76;95833.41;1713074;83;21022;-50
2022/03/12 06:42:51;;;;;;;114.97;59.00;;;;;;;-5.90;60.98;95834.43;1692868;84;21462;-51
2022/03/12 06:45:18;;;;;;;144.35;71.53;;;;;;;-5.64;60.67;95835.14;1682344;83;21621;-51
2022/03/12 06:47:46;;;;;;;125.45;66.05;;;;;;;-5.39;59.96;95834.27;1701572;83;21086;-50
2022/03/12 06:50:18;;;;;;;119.02;62.45;;;;;;;-5.21;59.50;95831.23;1694641;83;21149;-51
2022/03/12 06:52:47;;;;;;;131.63;65.22;;;;;;;-5.08;58.88;95830.78;1709283;82;20999;-51
2022/03/12 06:55:21;;;;;;;98.35;51.55;;;;;;;-5.01;58.85;95838.56;1716467;82;21099;-50
2022/03/12 06:57:51;;;;;;;89.85;48.45;;;;;;;-4.91;58.29;95828.02;1727052;82;21730;-52
2022/03/12 07:00:24;;;;;;;99.52;51.63;;;;;;;-4.77;58.22;95839.32;1705245;81;21536;-51
2022/03/12 07:02:52;;;;;;;86.97;46.92;;;;;;;-4.65;58.01;95825.98;1695971;81;21836;-51
2022/03/12 07:05:19;;;;;;;93.72;49.80;;;;;;;-4.45;57.49;95833.30;1724050;82;21056;-50
2022/03/12 07:07:49;;;;;;;77.45;42.60;;;;;;;-4.34;57.22;95835.27;1707563;81;22056;-52
2022/03/12 07:10:16;;;;;;;82.25;43.80;;;;;;;-4.16;57.04;95835.38;1707796;82;21050;-56
2022/03/12 07:12:46;;;;;;;96.15;51.28;;;;;;;-4.06;56.84;95827.48;1706756;81;21073;-52
2022/03/12 07:15:15;;;;;;;94.10;49.65;;;;;;;-3.90;56.91;95831.14;1705977;82;21228;-54
2022/03/12 07:17:43;;;;;;;113.83;57.70;;;;;;;-3.67;56.44;95833.70;1707393;82;21117;-53
2022/03/12 07:20:11;;;;;;;87.53;47.55;;;;;;;-3.51;55.71;95825.47;1696954;82;21086;-53
2022/03/12 07:22:40;;;;;;;90.22;46.50;;;;;;;-3.40;55.23;95823.14;1673993;83;21608;-53
2022/03/12 07:25:13;;;;;;;111.55;54.80;;;;;;;-3.27;54.93;95829.55;1639475;85;21077;-56
2022/03/12 07:27:42;;;;;;;91.40;48.45;;;;;;;-3.14;54.49;95827.12;1688867;82;21016;-53
2022/03/12 07:30:13;;;;;;;82.82;45.65;;;;;;;-3.04;54.19;95821.86;1702690;82;21045;-52
2022/03/12 07:32:42;;;;;;;79.15;41.50;;;;;;;-2.99;53.91;95825.13;1697967;82;20971;-51
2022/03/12 07:35:11;;;;;;;66.25;34.95;;;;;;;-2.87;53.93;95818.39;1702302;82;21017;-52
2022/03/12 07:37:41;;;;;;;53.95;30.30;;;;;;;-2.73;53.69;95817.50;1699523;82;21058;-51
2022/03/12 07:40:09;;;;;;;31.90;19.17;;;;;;;-2.54;53.52;95823.09;1706058;82;21196;-50
2022/03/12 07:42:37;;;;;;;27.35;15.75;;;;;;;-2.34;52.71;95814.09;1710015;82;21073;-52
2022/03/12 07:45:07;;;;;;;31.65;18.95;;;;;;;-2.20;52.35;95817.77;1717686;82;21030;-51
2022/03/12 07:47:36;;;;;;;22.70;16.25;;;;;;;-2.07;52.34;95814.73;1710118;82;21102;-52
2022/03/12 07:50:05;;;;;;;33.78;20.43;;;;;;;-1.88;51.80;95808.16;1698888;82;21085;-50
2022/03/12 07:52:33;;;;;;;26.80;18.15;;;;;;;-1.65;51.91;95794.34;1713462;82;21144;-51
2022/03/12 07:55:00;;;;;;;33.75;20.40;;;;;;;-1.36;51.24;95804.78;1705429;82;21065;-51
2022/03/12 07:57:29;;;;;;;37.88;21.45;;;;;;;-1.22;51.14;95806.48;1689947;83;21101;-51
2022/03/12 07:59:57;;;;;;;44.30;25.32;;;;;;;-0.94;50.11;95809.91;1701587;82;21095;-52
2022/03/12 08:02:24;;;;;;;37.93;21.93;;;;;;;-0.86;49.81;95798.94;1715798;81;21037;-52
2022/03/12 08:04:52;;;;;;;85.53;36.53;;;;;;;-0.88;49.42;95797.70;1711161;82;21085;-52
2022/03/12 08:07:20;;;;;;;95.45;39.73;;;;;;;-0.89;49.64;95797.48;1708369;82;21103;-51
2022/03/12 08:09:47;;;;;;;70.22;34.98;;;;;;;-0.73;49.82;95800.97;1698936;82;21067;-51
2022/03/12 08:12:17;;;;;;;77.92;34.67;;;;;;;-0.39;49.25;95801.59;1701900;82;20983;-51
2022/03/12 08:14:44;;;;;;;64.15;31.20;;;;;;;-0.09;48.44;95800.73;1706329;82;20991;-52
2022/03/12 08:17:12;;;;;;;63.63;30.40;;;;;;;0.12;48.47;95794.41;1696417;83;21751;-50
2022/03/12 08:19:40;;;;;;;56.35;28.32;;;;;;;0.19;47.96;95790.52;1694856;82;21070;-52
2022/03/12 08:22:10;;;;;;;98.07;55.05;;;;;;;0.28;47.90;95788.37;1700090;83;21190;-53
2022/03/12 08:24:39;;;;;;;63.30;29.42;;;;;;;0.51;47.95;95795.41;1713992;82;21105;-50
2022/03/12 08:27:07;;;;;;;58.38;26.77;;;;;;;0.77;47.02;95792.80;1704542;82;21053;-52
2022/03/12 08:29:34;;;;;;;55.70;26.30;;;;;;;0.83;46.39;95792.74;1706366;82;21939;-50
2022/03/12 08:32:07;;;;;;;56.10;25.65;;;;;;;0.88;46.90;95791.64;1696287;82;21019;-51
2022/03/12 08:34:31;;;;;;;36.17;20.88;;;;;;;1.12;46.88;95794.02;1710342;82;21117;-50
2022/03/12 08:36:58;;;;;;;36.00;20.43;;;;;;;1.39;46.03;95791.00;1707649;81;21053;-51
2022/03/12 08:39:25;;;;;;;37.80;20.70;;;;;;;1.70;45.34;95785.26;1696291;82;21075;-54
2022/03/12 08:41:52;;;;;;;32.13;18.62;;;;;;;1.85;44.95;95787.03;1701474;82;22156;-52
2022/03/12 08:44:20;;;;;;;34.90;21.20;;;;;;;1.83;44.23;95789.33;1705378;83;21010;-50
2022/03/12 08:46:47;;;;;;;35.30;21.70;;;;;;;1.79;44.11;95777.66;1703538;83;21541;-50
2022/03/12 08:49:18;;;;;;;42.03;24.32;;;;;;;1.95;44.02;95779.63;1695788;82;21023;-52
2022/03/12 08:51:46;;;;;;;56.45;30.40;;;;;;;2.15;43.80;95775.63;1701174;82;21598;-52
2022/03/12 08:54:14;;;;;;;45.03;25.15;;;;;;;2.26;44.29;95779.25;1695080;82;21952;-52
2022/03/12 08:56:43;;;;;;;33.88;20.60;;;;;;;2.40;44.19;95769.36;1709384;83;21100;-52
2022/03/12 08:59:12;;;;;;;38.83;20.45;;;;;;;2.48;43.31;95774.30;1713262;83;21046;-53
2022/03/12 09:01:43;;;;;;;34.70;21.37;;;;;;;2.48;42.72;95774.30;1717136;82;20956;-52
2022/03/12 09:04:09;;;;;;;34.55;20.62;;;;;;;2.44;43.07;95774.81;1710137;82;21003;-52
2022/03/12 09:06:36;;;;;;;47.93;24.82;;;;;;;2.38;42.76;95772.23;1711529;82;21172;-53
2022/03/12 09:09:04;;;;;;;43.33;22.70;;;;;;;2.39;43.49;95767.80;1704016;83;21031;-54
2022/03/12 09:11:32;;;;;;;50.88;27.07;;;;;;;2.52;42.78;95766.38;1712850;82;21001;-57
2022/03/12 09:14:00;;;;;;;47.78;26.90;;;;;;;2.72;42.78;95760.21;1699722;82;21547;-59
2022/03/12 09:16:27;;;;;;;43.78;26.77;;;;;;;3.13;42.79;95763.13;1713877;82;21010;-59
2022/03/12 09:18:57;;;;;;;31.27;19.37;;;;;;;3.60;40.88;95757.11;1711799;81;21067;-54
2022/03/12 09:21:24;;;;;;;36.25;21.02;;;;;;;3.82;39.90;95747.36;1696543;82;21067;-54
2022/03/12 09:23:52;;;;;;;30.40;19.07;;;;;;;4.09;39.90;95750.03;1704997;82;21569;-54
2022/03/12 09:26:22;;;;;;;23.00;14.23;;;;;;;4.20;39.01;95744.06;1710184;82;21058;-54
2022/03/12 09:28:49;;;;;;;21.57;13.45;;;;;;;4.17;38.30;95742.68;1698924;82;21735;-55
2022/03/12 09:31:18;;;;;;;22.65;13.60;;;;;;;4.17;38.33;95740.75;1719087;82;21121;-53
2022/03/12 09:33:45;;;;;;;21.50;13.30;;;;;;;4.26;38.13;95732.23;1704733;82;21063;-54
2022/03/12 09:36:15;;;;;;;23.00;14.93;;;;;;;4.51;37.45;95737.19;1700407;82;21049;-54
2022/03/12 09:38:42;;;;;;;22.98;13.65;;;;;;;4.67;37.27;95736.27;1704931;81;21422;-54
2022/03/12 09:41:10;;;;;;;19.92;12.03;;;;;;;4.80;36.18;95732.79;1695193;83;21069;-54
2022/03/12 09:43:38;;;;;;;14.60;9.40;;;;;;;5.06;36.04;95730.31;1696303;83;21149;-60
2022/03/12 09:46:06;;;;;;;13.28;9.10;;;;;;;5.35;35.26;95720.39;1693132;82;21068;-54
2022/03/12 09:48:35;;;;;;;11.78;9.00;;;;;;;5.75;34.53;95722.73;1689499;82;21062;-55
2022/03/12 09:51:03;;;;;;;17.17;9.53;;;;;;;6.22;34.26;95716.78;1702000;82;21098;-56
2022/03/12 09:53:34;;;;;;;12.35;9.15;;;;;;;6.66;33.23;95713.67;1698348;82;21072;-56
2022/03/12 09:56:02;;;;;;;15.60;12.58;;;;;;;7.20;32.77;95715.11;1693846;82;21092;-53
2022/03/12 09:58:29;;;;;;;16.35;10.58;;;;;;;7.67;32.14;95704.74;1702044;82;21057;-55
2022/03/12 10:00:57;;;;;;;15.55;11.85;;;;;;;8.07;31.83;95709.43;1713139;82;21118;-54
2022/03/12 10:03:24;;;;;;;16.85;11.48;;;;;;;8.47;30.88;95703.13;1707242;82;20993;-54
2022/03/12 10:05:51;;;;;;;11.00;7.10;;;;;;;8.90;30.66;95700.05;1692890;82;21076;-53
2022/03/12 10:08:20;;;;;;;12.30;7.85;;;;;;;9.32;29.79;95700.21;1688757;83;21226;-53
2022/03/12 10:10:49;;;;;;;18.15;9.43;;;;;;;9.37;29.28;95689.33;1695519;82;21053;-54
2022/03/12 10:13:16;;;;;;;20.37;12.15;;;;;;;9.29;30.03;95688.66;1703199;83;21027;-55
2022/03/12 10:15:44;;;;;;;22.10;12.18;;;;;;;9.31;29.47;95691.00;1703747;82;21069;-56
2022/03/12 10:18:15;;;;;;;15.30;8.63;;;;;;;9.54;29.30;95685.53;1694892;83;21025;-54
2022/03/12 10:20:45;;;;;;;15.85;10.48;;;;;;;10.03;28.76;95687.45;1718100;82;21779;-54
2022/03/12 10:23:14;;;;;;;17.50;9.80;;;;;;;10.55;28.45;95681.54;1700501;82;21060;-54
2022/03/12 10:25:45;;;;;;;13.77;7.13;;;;;;;10.85;27.63;95680.11;1708330;82;21062;-56
2022/03/12 10:28:14;;;;;;;16.85;8.40;;;;;;;11.20;26.91;95674.41;1706797;82;21069;-54
2022/03/12 10:30:42;;;;;;;13.35;7.60;;;;;;;11.57;26.28;95671.20;1696969;82;21071;-56
2022/03/12 10:33:24;;;;;;;13.55;7.22;;;;;;;11.91;25.63;95666.77;1697758;82;21205;-54
2022/03/12 10:35:52;;;;;;;7.80;4.78;;;;;;;12.32;25.17;95664.11;1657028;83;21034;-56
2022/03/12 10:38:22;;;;;;;11.15;6.12;;;;;;;12.55;24.29;95655.57;1695245;82;21030;-57
2022/03/12 10:40:49;;;;;;;13.00;7.60;;;;;;;12.50;24.41;95651.98;1705521;82;21056;-61
2022/03/12 10:43:17;;;;;;;10.85;5.70;;;;;;;12.68;23.76;95648.86;1702407;82;21080;-55
2022/03/12 10:45:48;;;;;;;24.98;12.05;;;;;;;12.85;23.52;95646.78;1714890;82;21088;-53
2022/03/12 10:48:22;;;;;;;25.50;13.28;;;;;;;13.01;24.41;95647.52;1705512;82;20996;-54
2022/03/12 10:50:49;;;;;;;24.25;13.78;;;;;;;13.38;24.55;95645.96;1693241;83;21050;-60
2022/03/12 10:53:17;;;;;;;24.00;16.20;;;;;;;13.76;24.93;95646.69;1651796;85;20994;-55
2022/03/12 10:55:48;;;;;;;22.02;12.73;;;;;;;14.29;23.32;95642.91;1645044;85;21002;-61
2022/03/12 10:58:18;;;;;;;19.73;9.93;;;;;;;14.56;23.11;95630.05;1647695;86;21845;-54
2022/03/12 11:01:02;;;;;;;27.70;12.65;;;;;;;14.82;22.67;95628.70;1644067;86;21022;-54
2022/03/12 11:03:32;;;;;;;34.13;13.05;;;;;;;14.65;21.78;95619.80;1639960;86;21060;-55
2022/03/12 11:05:59;;;;;;;14.60;6.87;;;;;;;14.56;21.73;95623.12;1687880;82;21082;-52
2022/03/12 11:08:29;;;;;;;6.78;3.87;;;;;;;14.60;21.51;95615.48;1689950;83;21042;-56
2022/03/12 11:11:14;;;;;;;49.27;5.45;;;;;;;14.64;21.24;95618.26;1702877;82;22233;-53
2022/03/12 11:13:47;;;;;;;8.25;4.45;;;;;;;14.47;21.96;95604.45;1712360;83;21555;-57
2022/03/12 11:16:24;;;;;;;7.50;4.33;;;;;;;14.98;21.75;95602.16;1691856;82;21040;-54
2022/03/12 11:18:57;;;;;;;7.83;4.70;;;;;;;15.58;20.85;95600.56;1678251;83;21117;-53
2022/03/12 11:21:41;;;;;;;6.83;4.37;;;;;;;15.79;20.40;95595.52;1704729;82;21101;-53
2022/03/12 11:24:09;;;;;;;10.00;6.80;;;;;;;15.96;19.93;95582.89;1718253;82;21339;-56
2022/03/12 11:26:49;;;;;;;12.23;6.58;;;;;;;15.77;20.15;95584.86;1721226;81;21499;-54